Аэропорт: Гомель. Гомель

ICAO: UMGG

METAR:
2019-07-24 01:00:00
UMGG 240100Z 36002MPS 3800 -SHRA BR OVC003CB 16/16 Q1011 R28/290050 NOSIG RMK QBB090
METAR:
2019-07-23 23:00:00
TAF UMGG 232300Z 2400/2424 34003MPS 2000 BR BKN004 TEMPO 2400/2405 0400 SHRA FG BKN002 SCT015CB FM240500 36006MPS 6000 BKN020 TEMPO 2405/2416 VRB14MPS 2000 TSRA SQ BKN005 BKN025CB TEMPO 2416/2424 33004MPS